createdAt,value
2018-02-16T06:42:08.308Z,100699.19
2018-02-16T06:44:35.856Z,100696.22
2018-02-16T06:47:03.326Z,100697.52
2018-02-16T06:49:30.794Z,100689.77
2018-02-16T06:51:58.286Z,100698.44
2018-02-16T06:54:25.755Z,100705.30
2018-02-16T06:56:54.719Z,100706.30
2018-02-16T06:59:22.185Z,100715.80
2018-02-16T07:01:49.691Z,100714.47
2018-02-16T07:04:17.160Z,100724.28
2018-02-16T07:06:44.646Z,100722.77
2018-02-16T07:09:12.111Z,100721.17
2018-02-16T07:11:39.619Z,100724.88
2018-02-16T07:14:07.078Z,100734.63
2018-02-16T07:16:34.558Z,100726.03
2018-02-16T07:19:02.022Z,100729.33
2018-02-16T07:21:29.505Z,100723.71
2018-02-16T07:23:56.968Z,100738.55
2018-02-16T07:26:24.437Z,100733.62
2018-02-16T07:28:51.932Z,100731.95
2018-02-16T07:31:19.413Z,100742.46
2018-02-16T07:33:46.903Z,100745.06
2018-02-16T07:36:14.360Z,100755.27
2018-02-16T07:38:41.826Z,100752.08
2018-02-16T07:41:09.285Z,100760.73
2018-02-16T07:43:36.761Z,100753.08
2018-02-16T07:46:04.264Z,100759.69
2018-02-16T07:48:31.753Z,100753.58
2018-02-16T07:50:59.214Z,100758.34
2018-02-16T07:53:26.732Z,100761.58
2018-02-16T07:55:54.223Z,100764.33
2018-02-16T07:58:21.699Z,100764.83
2018-02-16T08:00:49.229Z,100778.14
2018-02-16T08:03:16.677Z,100778.05
2018-02-16T08:05:44.167Z,100777.94
2018-02-16T08:08:11.621Z,100779.97
2018-02-16T08:10:39.123Z,100777.62
2018-02-16T08:13:06.582Z,100795.06
2018-02-16T08:15:34.088Z,100791.31
2018-02-16T08:18:01.599Z,100794.78
2018-02-16T08:20:29.178Z,100789.38
2018-02-16T08:22:56.639Z,100792.46
2018-02-16T08:25:24.101Z,100802.34
2018-02-16T08:27:51.590Z,100795.52
2018-02-16T08:30:19.058Z,100802.54
2018-02-16T08:32:46.539Z,100796.70
2018-02-16T08:35:14.002Z,100812.22
2018-02-16T08:37:41.486Z,100813.30
2018-02-16T08:40:08.964Z,100817.59
2018-02-16T08:42:36.535Z,100817.75
2018-02-16T08:45:04.077Z,100815.37
2018-02-16T08:47:32.257Z,100812.92
2018-02-16T08:49:59.752Z,100812.20
2018-02-16T08:52:27.254Z,100815.34
2018-02-16T08:54:54.758Z,100821.25
2018-02-16T08:57:22.309Z,100820.39
2018-02-16T08:59:49.818Z,100816.13
2018-02-16T09:02:17.294Z,100822.57
2018-02-16T09:04:44.811Z,100830.75
2018-02-16T09:07:12.332Z,100835.17
2018-02-16T09:09:39.844Z,100834.25
2018-02-16T09:12:07.334Z,100828.45
2018-02-16T09:14:34.818Z,100826.13
2018-02-16T09:17:02.383Z,100831.20
2018-02-16T09:19:29.886Z,100833.56
2018-02-16T09:21:57.403Z,100838.06
2018-02-16T09:24:24.978Z,100841.03
2018-02-16T09:26:52.463Z,100839.39
2018-02-16T09:29:19.969Z,100848.34
2018-02-16T09:31:47.505Z,100850.47
2018-02-16T09:34:14.981Z,100846.44
2018-02-16T09:36:42.524Z,100853.42
2018-02-16T09:39:12.870Z,100850.19
2018-02-16T09:41:40.404Z,100855.03
2018-02-16T09:44:07.900Z,100852.62
2018-02-16T09:46:35.412Z,100855.98
2018-02-16T09:49:02.947Z,100859.95
2018-02-16T09:51:30.417Z,100862.08
2018-02-16T09:53:57.926Z,100859.44
2018-02-16T09:56:25.418Z,100863.44
2018-02-16T09:58:52.945Z,100866.83
2018-02-16T10:01:20.425Z,100870.67
2018-02-16T10:03:47.911Z,100869.20
2018-02-16T10:06:15.369Z,100871.19
2018-02-16T10:08:42.849Z,100866.89
2018-02-16T10:11:10.319Z,100874.77
2018-02-16T10:13:37.814Z,100876.75
2018-02-16T10:16:05.279Z,100867.02
2018-02-16T10:18:32.814Z,100871.98
2018-02-16T10:21:00.287Z,100876.57
2018-02-16T10:23:27.794Z,100868.28
2018-02-16T10:25:55.262Z,100874.47
2018-02-16T10:28:22.830Z,100880.59
2018-02-16T10:30:50.290Z,100881.56
2018-02-16T10:33:17.750Z,100886.41
2018-02-16T10:35:45.234Z,100872.49
2018-02-16T10:38:12.694Z,100886.66
2018-02-16T10:40:40.183Z,100888.60
2018-02-16T10:43:07.658Z,100888.20
2018-02-16T10:45:35.143Z,100875.42
2018-02-16T10:48:02.638Z,100878.09
2018-02-16T10:50:30.136Z,100879.17
2018-02-16T10:52:57.601Z,100874.88
2018-02-16T10:55:25.077Z,100867.69
2018-02-16T10:57:52.569Z,100868.45
2018-02-16T11:00:25.590Z,100879.12
2018-02-16T11:02:58.626Z,100886.04
2018-02-16T11:05:31.665Z,100881.61
2018-02-16T11:07:59.154Z,100889.94
2018-02-16T11:10:26.620Z,100891.05
2018-02-16T11:12:54.093Z,100886.00
2018-02-16T11:15:21.582Z,100896.94
2018-02-16T11:17:49.064Z,100893.67
2018-02-16T11:20:16.567Z,100897.73
2018-02-16T11:22:44.052Z,100893.06
2018-02-16T11:25:11.508Z,100888.55
2018-02-16T11:27:38.999Z,100883.26
2018-02-16T11:30:06.455Z,100887.92
2018-02-16T11:32:34.119Z,100896.88
2018-02-16T11:35:01.582Z,100892.02
2018-02-16T11:37:29.041Z,100888.37
2018-02-16T11:39:56.526Z,100885.28
2018-02-16T11:42:24.000Z,100887.98
2018-02-16T11:44:51.493Z,100899.47
2018-02-16T11:47:18.958Z,100888.03
2018-02-16T11:49:46.445Z,100888.48
2018-02-16T11:52:13.909Z,100882.17
2018-02-16T11:54:41.385Z,100877.00
2018-02-16T11:57:08.855Z,100883.59
2018-02-16T11:59:36.345Z,100877.00
2018-02-16T12:02:03.819Z,100881.68
2018-02-16T12:04:31.294Z,100876.70
2018-02-16T12:06:58.779Z,100886.62
2018-02-16T12:09:26.257Z,100892.75
2018-02-16T12:11:53.793Z,100892.62
2018-02-16T12:14:21.339Z,100893.33
2018-02-16T12:16:48.842Z,100899.41
2018-02-16T12:19:16.324Z,100890.38
2018-02-16T12:21:43.791Z,100880.95
2018-02-16T12:24:11.288Z,100890.41
2018-02-16T12:26:38.783Z,100897.02
2018-02-16T12:29:06.241Z,100889.20
2018-02-16T12:31:33.710Z,100903.00
2018-02-16T12:34:01.202Z,100901.77
2018-02-16T12:36:28.697Z,100894.83
2018-02-16T12:38:56.169Z,100881.48
2018-02-16T12:41:23.632Z,100893.43
2018-02-16T12:43:51.127Z,100890.55
2018-02-16T12:46:18.578Z,100891.73
2018-02-16T12:48:46.045Z,100891.31
2018-02-16T12:51:13.509Z,100890.97
2018-02-16T12:53:40.973Z,100898.92
2018-02-16T12:56:08.446Z,100893.05
2018-02-16T12:58:35.923Z,100894.48
2018-02-16T13:01:03.386Z,100891.05
2018-02-16T13:03:30.879Z,100889.48
2018-02-16T13:05:58.341Z,100894.87
2018-02-16T13:08:25.832Z,100890.59
2018-02-16T13:10:53.295Z,100885.95
2018-02-16T13:13:20.765Z,100888.43
2018-02-16T13:15:48.256Z,100890.97
2018-02-16T13:18:15.756Z,100884.00
2018-02-16T13:20:43.242Z,100896.75
2018-02-16T13:23:10.716Z,100887.61
2018-02-16T13:25:38.192Z,100884.77
2018-02-16T13:28:05.658Z,100896.72
2018-02-16T13:30:33.143Z,100898.11
2018-02-16T13:33:00.672Z,100902.53
2018-02-16T13:35:28.152Z,100896.65
2018-02-16T13:37:55.631Z,100895.77
2018-02-16T13:40:23.101Z,100900.92
2018-02-16T13:42:50.656Z,100905.03
2018-02-16T13:45:18.172Z,100897.20
2018-02-16T13:47:45.850Z,100896.97
2018-02-16T13:50:13.582Z,100892.37
2018-02-16T13:52:41.131Z,100900.84
2018-02-16T13:55:08.587Z,100893.30
2018-02-16T13:57:36.072Z,100908.42
2018-02-16T14:00:03.762Z,100910.37
2018-02-16T14:02:31.485Z,100906.28
2018-02-16T14:04:59.057Z,100904.58
2018-02-16T14:07:26.533Z,100909.25
2018-02-16T14:09:54.022Z,100909.37
2018-02-16T14:12:21.516Z,100903.05
2018-02-16T14:14:49.100Z,100903.67
2018-02-16T14:17:16.819Z,100907.48
2018-02-16T14:19:44.425Z,100902.52
2018-02-16T14:22:12.057Z,100902.78
2018-02-16T14:24:39.629Z,100898.25
2018-02-16T14:27:07.208Z,100911.22
2018-02-16T14:29:34.927Z,100916.67
2018-02-16T14:32:02.827Z,100912.78
2018-02-16T14:34:30.665Z,100925.37
2018-02-16T14:36:58.185Z,100931.38
2018-02-16T14:39:25.699Z,100922.82
2018-02-16T14:41:53.200Z,100925.86
2018-02-16T14:44:20.650Z,100922.23
2018-02-16T14:46:48.377Z,100926.77
2018-02-16T14:49:15.968Z,100927.52
2018-02-16T14:51:43.524Z,100925.64
2018-02-16T14:54:11.093Z,100932.69
2018-02-16T14:56:38.722Z,100947.27
2018-02-16T14:59:06.265Z,100953.17
2018-02-16T15:01:33.965Z,100953.86
2018-02-16T15:04:01.648Z,100954.75
2018-02-16T15:06:29.150Z,100962.98
2018-02-16T15:08:56.615Z,100961.30
2018-02-16T15:11:24.085Z,100969.56
2018-02-16T15:13:51.541Z,100972.58
2018-02-16T15:16:19.021Z,100976.51
2018-02-16T15:18:46.480Z,100978.29
2018-02-16T15:21:13.989Z,100981.45
2018-02-16T15:23:41.455Z,100980.15
2018-02-16T15:26:08.918Z,100992.87
2018-02-16T15:28:36.377Z,100997.74
2018-02-16T15:31:03.855Z,101001.78
2018-02-16T15:33:31.315Z,101006.64
2018-02-16T15:35:58.786Z,101002.63
2018-02-16T15:38:26.290Z,101007.10
2018-02-16T15:40:53.799Z,101007.12
2018-02-16T15:43:21.266Z,101007.43
2018-02-16T15:45:48.730Z,101002.23
2018-02-16T15:48:16.212Z,101016.02
2018-02-16T15:50:43.684Z,101013.17
2018-02-16T15:53:11.174Z,101015.38
2018-02-16T15:55:38.639Z,101016.44
2018-02-16T15:58:06.114Z,101012.03
2018-02-16T16:00:33.614Z,101017.02
2018-02-16T16:03:01.120Z,101020.84
2018-02-16T16:05:28.604Z,101022.52
2018-02-16T16:07:56.094Z,101020.33
2018-02-16T16:10:23.595Z,101025.67
2018-02-16T16:12:51.087Z,101032.49
2018-02-16T16:15:18.576Z,101031.84
2018-02-16T16:17:46.076Z,101036.12
2018-02-16T16:20:13.556Z,101043.14
2018-02-16T16:22:41.129Z,101041.68
2018-02-16T16:25:08.615Z,101048.61
2018-02-16T16:27:36.101Z,101044.30
2018-02-16T16:30:03.618Z,101050.05
2018-02-16T16:32:31.125Z,101050.13
2018-02-16T16:34:58.591Z,101054.34
2018-02-16T16:37:26.078Z,101061.38
2018-02-16T16:39:53.619Z,101066.03
2018-02-16T16:42:21.097Z,101064.50
2018-02-16T16:44:48.566Z,101071.08
2018-02-16T16:47:16.102Z,101081.73
2018-02-16T16:49:43.599Z,101080.39
2018-02-16T16:52:11.091Z,101083.92
2018-02-16T16:54:38.565Z,101093.16
2018-02-16T16:57:06.068Z,101095.38
2018-02-16T16:59:33.544Z,101100.28
2018-02-16T17:02:01.061Z,101103.73
2018-02-16T17:04:28.546Z,101110.07
2018-02-16T17:06:56.067Z,101103.52
2018-02-16T17:09:23.537Z,101111.25
2018-02-16T17:11:51.023Z,101116.02
2018-02-16T17:14:18.520Z,101118.48
2018-02-16T17:16:45.990Z,101127.64
2018-02-16T17:19:13.475Z,101125.79
2018-02-16T17:21:40.967Z,101123.50
2018-02-16T17:24:08.489Z,101135.80
2018-02-16T17:26:35.979Z,101130.48
2018-02-16T17:29:03.473Z,101126.70
2018-02-16T17:31:30.955Z,101134.92
2018-02-16T17:33:58.434Z,101130.77
2018-02-16T17:36:25.903Z,101134.39
2018-02-16T17:38:53.395Z,101136.16
2018-02-16T17:41:20.860Z,101134.31
2018-02-16T17:43:48.473Z,101135.62
2018-02-16T17:46:15.960Z,101141.56
2018-02-16T17:48:43.446Z,101133.23
2018-02-16T17:51:10.939Z,101140.09
2018-02-16T17:53:38.429Z,101143.47
2018-02-16T17:56:05.916Z,101144.12
2018-02-16T17:58:33.426Z,101150.96
2018-02-16T18:01:00.935Z,101144.78
2018-02-16T18:03:28.422Z,101148.38
2018-02-16T18:05:55.900Z,101153.77
2018-02-16T18:08:23.394Z,101152.47
2018-02-16T18:10:50.911Z,101157.91
2018-02-16T18:13:18.381Z,101156.88
2018-02-16T18:15:45.846Z,101152.42
2018-02-16T18:18:13.368Z,101153.97
2018-02-16T18:20:40.859Z,101150.03
2018-02-16T18:23:08.353Z,101151.77
2018-02-16T18:25:35.839Z,101155.34
2018-02-16T18:28:03.386Z,101158.81
2018-02-16T18:30:30.865Z,101154.12
2018-02-16T18:32:58.385Z,101156.91
2018-02-16T18:35:25.946Z,101164.14
2018-02-16T18:37:53.433Z,101162.63
2018-02-16T18:40:20.944Z,101164.55
2018-02-16T18:42:48.419Z,101172.30
2018-02-16T18:45:15.889Z,101172.30
2018-02-16T18:47:43.367Z,101169.84
2018-02-16T18:50:10.849Z,101174.34
2018-02-16T18:52:38.330Z,101180.83
2018-02-16T18:55:05.815Z,101182.56
2018-02-16T18:57:33.512Z,101183.47
2018-02-16T19:00:01.108Z,101183.57
2018-02-16T19:02:28.574Z,101188.05
2018-02-16T19:05:01.103Z,101192.30
2018-02-16T19:07:28.586Z,101190.66
2018-02-16T19:09:56.065Z,101181.99
2018-02-16T19:12:23.619Z,101184.96
2018-02-16T19:14:51.110Z,101182.70
2018-02-16T19:17:18.604Z,101185.61
2018-02-16T19:19:46.144Z,101180.59
2018-02-16T19:22:13.820Z,101180.86
2018-02-16T19:24:41.454Z,101184.80
2018-02-16T19:27:08.957Z,101185.27
2018-02-16T19:29:36.506Z,101180.86
2018-02-16T19:32:04.432Z,101182.09
2018-02-16T19:34:32.020Z,101181.66
2018-02-16T19:36:59.572Z,101176.77
2018-02-16T19:39:27.128Z,101182.45
2018-02-16T19:41:54.702Z,101181.55
2018-02-16T19:44:22.231Z,101184.70
2018-02-16T19:46:49.740Z,101191.34
2018-02-16T19:49:17.230Z,101189.16
2018-02-16T19:51:44.695Z,101189.60
2018-02-16T19:54:12.167Z,101188.06
2018-02-16T19:56:40.229Z,101184.98
2018-02-16T19:59:08.379Z,101186.52
2018-02-16T20:01:35.982Z,101187.50
2018-02-16T20:04:03.495Z,101182.34
2018-02-16T20:06:31.057Z,101187.17
2018-02-16T20:08:58.554Z,101194.47
2018-02-16T20:11:26.006Z,101190.51
2018-02-16T20:13:53.488Z,101187.36
2018-02-16T20:16:20.971Z,101187.80
2018-02-16T20:18:48.549Z,101189.64
2018-02-16T20:21:16.279Z,101183.42
2018-02-16T20:23:43.892Z,101189.27
2018-02-16T20:26:11.373Z,101186.66
2018-02-16T20:28:38.880Z,101193.64
2018-02-16T20:31:06.413Z,101182.40
2018-02-16T20:33:34.739Z,101184.12
2018-02-16T20:36:02.626Z,101184.16
2018-02-16T20:38:30.633Z,101187.91
2018-02-16T20:40:58.133Z,101182.91
2018-02-16T20:43:25.899Z,101190.33
2018-02-16T20:45:53.385Z,101193.56
2018-02-16T20:48:20.850Z,101197.80
2018-02-16T20:50:48.420Z,101196.58
2018-02-16T20:53:16.040Z,101196.84
2018-02-16T20:55:43.918Z,101193.27
2018-02-16T20:58:11.502Z,101198.78
2018-02-16T21:00:39.002Z,101195.38
2018-02-16T21:03:06.473Z,101198.64
2018-02-16T21:05:34.000Z,101196.58
2018-02-16T21:08:01.471Z,101198.42
2018-02-16T21:10:28.959Z,101197.14
2018-02-16T21:12:56.471Z,101202.78
2018-02-16T21:15:23.930Z,101200.11
2018-02-16T21:17:51.407Z,101205.43
2018-02-16T21:20:18.875Z,101200.14
2018-02-16T21:22:46.448Z,101209.51
2018-02-16T21:25:13.916Z,101209.51
2018-02-16T21:27:41.485Z,101206.67
2018-02-16T21:30:08.988Z,101210.86
2018-02-16T21:32:36.580Z,101208.62
2018-02-16T21:35:04.148Z,101212.20
2018-02-16T21:37:31.635Z,101212.42
2018-02-16T21:39:59.114Z,101207.45
2018-02-16T21:42:26.581Z,101210.91
2018-02-16T21:44:54.112Z,101211.61
2018-02-16T21:47:21.579Z,101214.05
2018-02-16T21:49:49.125Z,101211.42
2018-02-16T21:52:16.600Z,101212.69
2018-02-16T21:54:44.079Z,101209.64
2018-02-16T21:57:11.547Z,101204.67
2018-02-16T21:59:39.080Z,101202.41
2018-02-16T22:02:06.566Z,101203.63
2018-02-16T22:04:34.069Z,101205.38
2018-02-16T22:07:01.568Z,101205.57
2018-02-16T22:09:29.035Z,101210.72
2018-02-16T22:11:56.564Z,101206.50
2018-02-16T22:14:24.122Z,101201.32
2018-02-16T22:16:51.732Z,101198.20
2018-02-16T22:19:19.242Z,101191.26
2018-02-16T22:21:46.794Z,101195.88
2018-02-16T22:24:14.252Z,101198.02
2018-02-16T22:26:41.722Z,101200.37
2018-02-16T22:29:09.185Z,101191.77
2018-02-16T22:31:36.672Z,101187.88
2018-02-16T22:34:04.145Z,101186.98
2018-02-16T22:36:31.653Z,101186.24
2018-02-16T22:38:59.126Z,101197.34
2018-02-16T22:41:26.618Z,101198.61
2018-02-16T22:43:54.129Z,101195.78
2018-02-16T22:46:21.600Z,101199.25
2018-02-16T22:48:49.114Z,101208.99
2018-02-16T22:51:16.614Z,101212.95
2018-02-16T22:54:00.998Z,101212.67
2018-02-16T22:56:28.484Z,101210.55
2018-02-16T22:58:55.960Z,101212.22
2018-02-16T23:01:23.430Z,101210.05
2018-02-16T23:03:50.925Z,101224.61
2018-02-16T23:06:18.400Z,101223.94
2018-02-16T23:08:45.881Z,101224.80
2018-02-16T23:11:13.344Z,101224.75
2018-02-16T23:13:40.818Z,101213.03
2018-02-16T23:16:08.292Z,101210.43
2018-02-16T23:18:35.783Z,101203.54
2018-02-16T23:21:03.242Z,101219.80
2018-02-16T23:23:30.743Z,101210.30
2018-02-16T23:25:58.220Z,101215.88
2018-02-16T23:28:25.721Z,101213.23
2018-02-16T23:30:53.187Z,101222.78
2018-02-16T23:33:20.673Z,101218.56
2018-02-16T23:35:48.169Z,101221.55
2018-02-16T23:38:16.411Z,101210.98
2018-02-16T23:40:43.894Z,101211.67
2018-02-16T23:43:11.318Z,101206.50
2018-02-16T23:45:38.795Z,101210.39
2018-02-16T23:48:06.275Z,101209.98
2018-02-16T23:50:33.744Z,101209.91
2018-02-16T23:53:01.234Z,101209.98
2018-02-16T23:55:28.742Z,101196.69
2018-02-16T23:57:56.216Z,101194.42
